sensor_id;sensor_type;location;lat;lon;timestamp;temperature;humidity
21540;DHT22;10931;52.164;5.518;2023-03-23T00:01:48;20.10;63.50
21540;DHT22;10931;52.164;5.518;2023-03-23T00:04:19;20.00;63.50
21540;DHT22;10931;52.164;5.518;2023-03-23T00:06:46;20.00;63.50
21540;DHT22;10931;52.164;5.518;2023-03-23T00:09:13;20.00;63.50
21540;DHT22;10931;52.164;5.518;2023-03-23T00:11:41;20.00;63.50
21540;DHT22;10931;52.164;5.518;2023-03-23T00:14:07;20.10;63.60
21540;DHT22;10931;52.164;5.518;2023-03-23T00:16:38;20.00;63.50
21540;DHT22;10931;52.164;5.518;2023-03-23T00:19:10;20.00;63.50
21540;DHT22;10931;52.164;5.518;2023-03-23T00:21:44;20.00;63.50
21540;DHT22;10931;52.164;5.518;2023-03-23T00:24:19;20.00;63.50
21540;DHT22;10931;52.164;5.518;2023-03-23T00:26:48;20.00;63.50
21540;DHT22;10931;52.164;5.518;2023-03-23T00:29:22;20.00;63.50
21540;DHT22;10931;52.164;5.518;2023-03-23T00:31:48;20.00;63.50
21540;DHT22;10931;52.164;5.518;2023-03-23T00:34:19;20.00;63.50
21540;DHT22;10931;52.164;5.518;2023-03-23T00:36:54;20.00;63.50
21540;DHT22;10931;52.164;5.518;2023-03-23T00:39:23;20.00;63.50
21540;DHT22;10931;52.164;5.518;2023-03-23T00:41:54;20.00;63.50
21540;DHT22;10931;52.164;5.518;2023-03-23T00:44:30;20.00;63.50
21540;DHT22;10931;52.164;5.518;2023-03-23T00:46:57;20.00;63.50
21540;DHT22;10931;52.164;5.518;2023-03-23T00:49:24;19.90;63.50
21540;DHT22;10931;52.164;5.518;2023-03-23T00:51:57;20.00;63.50
21540;DHT22;10931;52.164;5.518;2023-03-23T00:54:24;20.00;63.50
21540;DHT22;10931;52.164;5.518;2023-03-23T00:56:51;20.00;63.50
21540;DHT22;10931;52.164;5.518;2023-03-23T00:59:18;19.90;63.50
21540;DHT22;10931;52.164;5.518;2023-03-23T01:01:44;19.90;63.50
21540;DHT22;10931;52.164;5.518;2023-03-23T01:04:10;19.90;63.50
21540;DHT22;10931;52.164;5.518;2023-03-23T01:06:42;19.90;63.50
21540;DHT22;10931;52.164;5.518;2023-03-23T01:09:18;19.90;63.50
21540;DHT22;10931;52.164;5.518;2023-03-23T01:11:47;19.90;63.50
21540;DHT22;10931;52.164;5.518;2023-03-23T01:14:14;19.90;63.50
21540;DHT22;10931;52.164;5.518;2023-03-23T01:16:41;19.90;63.50
21540;DHT22;10931;52.164;5.518;2023-03-23T01:19:07;19.90;63.50
21540;DHT22;10931;52.164;5.518;2023-03-23T01:21:51;19.90;63.50
21540;DHT22;10931;52.164;5.518;2023-03-23T01:24:17;19.90;63.50
21540;DHT22;10931;52.164;5.518;2023-03-23T01:26:43;19.90;63.50
21540;DHT22;10931;52.164;5.518;2023-03-23T01:29:08;19.90;63.50
21540;DHT22;10931;52.164;5.518;2023-03-23T01:31:34;19.90;63.50
21540;DHT22;10931;52.164;5.518;2023-03-23T01:34:05;19.90;63.50
21540;DHT22;10931;52.164;5.518;2023-03-23T01:36:31;19.90;63.50
21540;DHT22;10931;52.164;5.518;2023-03-23T01:38:59;19.90;63.60
21540;DHT22;10931;52.164;5.518;2023-03-23T01:41:26;19.90;63.50
21540;DHT22;10931;52.164;5.518;2023-03-23T01:46:44;19.90;63.60
21540;DHT22;10931;52.164;5.518;2023-03-23T01:49:17;19.90;63.60
21540;DHT22;10931;52.164;5.518;2023-03-23T01:51:48;19.90;63.60
21540;DHT22;10931;52.164;5.518;2023-03-23T01:54:26;19.90;63.60
21540;DHT22;10931;52.164;5.518;2023-03-23T01:57:13;19.90;63.60
21540;DHT22;10931;52.164;5.518;2023-03-23T01:59:42;19.80;63.50
21540;DHT22;10931;52.164;5.518;2023-03-23T02:02:11;19.90;63.60
21540;DHT22;10931;52.164;5.518;2023-03-23T02:04:38;19.80;63.50
21540;DHT22;10931;52.164;5.518;2023-03-23T02:07:08;19.80;63.50
21540;DHT22;10931;52.164;5.518;2023-03-23T02:09:34;19.80;63.60
21540;DHT22;10931;52.164;5.518;2023-03-23T02:12:07;19.90;63.60
21540;DHT22;10931;52.164;5.518;2023-03-23T02:14:32;19.80;63.60
21540;DHT22;10931;52.164;5.518;2023-03-23T02:17:08;19.80;63.50
21540;DHT22;10931;52.164;5.518;2023-03-23T02:25:35;19.80;63.50
21540;DHT22;10931;52.164;5.518;2023-03-23T02:33:48;19.80;63.50
21540;DHT22;10931;52.164;5.518;2023-03-23T02:40:04;19.80;63.60
21540;DHT22;10931;52.164;5.518;2023-03-23T02:42:38;19.80;63.60
21540;DHT22;10931;52.164;5.518;2023-03-23T02:45:07;19.80;63.60
21540;DHT22;10931;52.164;5.518;2023-03-23T02:47:38;19.80;63.60
21540;DHT22;10931;52.164;5.518;2023-03-23T02:50:27;19.80;63.60
21540;DHT22;10931;52.164;5.518;2023-03-23T02:52:57;19.80;63.70
21540;DHT22;10931;52.164;5.518;2023-03-23T02:55:25;19.80;63.60
21540;DHT22;10931;52.164;5.518;2023-03-23T02:57:55;19.80;63.60
21540;DHT22;10931;52.164;5.518;2023-03-23T03:00:21;19.80;63.60
21540;DHT22;10931;52.164;5.518;2023-03-23T03:02:52;19.80;63.60
21540;DHT22;10931;52.164;5.518;2023-03-23T03:08:26;19.80;63.70
21540;DHT22;10931;52.164;5.518;2023-03-23T03:11:14;19.80;63.70
21540;DHT22;10931;52.164;5.518;2023-03-23T03:13:55;19.80;63.70
21540;DHT22;10931;52.164;5.518;2023-03-23T03:19:39;19.80;63.70
21540;DHT22;10931;52.164;5.518;2023-03-23T03:22:19;19.80;63.70
21540;DHT22;10931;52.164;5.518;2023-03-23T03:24:47;19.80;63.70
21540;DHT22;10931;52.164;5.518;2023-03-23T03:27:25;19.70;63.60
21540;DHT22;10931;52.164;5.518;2023-03-23T03:30:03;19.80;63.70
21540;DHT22;10931;52.164;5.518;2023-03-23T03:32:38;19.80;63.70
21540;DHT22;10931;52.164;5.518;2023-03-23T03:35:12;19.80;63.70
21540;DHT22;10931;52.164;5.518;2023-03-23T03:37:41;19.80;64.00
21540;DHT22;10931;52.164;5.518;2023-03-23T03:40:10;19.70;63.70
21540;DHT22;10931;52.164;5.518;2023-03-23T03:42:46;19.80;63.70
21540;DHT22;10931;52.164;5.518;2023-03-23T03:45:16;19.80;63.70
21540;DHT22;10931;52.164;5.518;2023-03-23T03:47:43;19.80;63.70
21540;DHT22;10931;52.164;5.518;2023-03-23T03:50:28;19.70;63.60
21540;DHT22;10931;52.164;5.518;2023-03-23T03:52:56;19.70;63.70
21540;DHT22;10931;52.164;5.518;2023-03-23T03:55:25;19.70;63.60
21540;DHT22;10931;52.164;5.518;2023-03-23T03:57:56;19.70;63.60
21540;DHT22;10931;52.164;5.518;2023-03-23T04:00:22;19.70;63.70
21540;DHT22;10931;52.164;5.518;2023-03-23T04:02:52;19.70;63.60
21540;DHT22;10931;52.164;5.518;2023-03-23T04:05:20;19.70;63.60
21540;DHT22;10931;52.164;5.518;2023-03-23T04:07:46;19.70;63.60
21540;DHT22;10931;52.164;5.518;2023-03-23T04:10:16;19.70;63.60
21540;DHT22;10931;52.164;5.518;2023-03-23T04:12:48;19.70;63.60
21540;DHT22;10931;52.164;5.518;2023-03-23T04:15:15;19.70;63.70
21540;DHT22;10931;52.164;5.518;2023-03-23T04:17:41;19.70;63.70
21540;DHT22;10931;52.164;5.518;2023-03-23T04:20:08;19.70;63.70
21540;DHT22;10931;52.164;5.518;2023-03-23T04:22:43;19.70;63.70
21540;DHT22;10931;52.164;5.518;2023-03-23T04:25:12;19.70;63.70
21540;DHT22;10931;52.164;5.518;2023-03-23T04:27:39;19.70;63.70
21540;DHT22;10931;52.164;5.518;2023-03-23T04:30:11;19.70;63.70
21540;DHT22;10931;52.164;5.518;2023-03-23T04:32:40;19.70;63.70
21540;DHT22;10931;52.164;5.518;2023-03-23T04:35:09;19.70;63.70
21540;DHT22;10931;52.164;5.518;2023-03-23T04:37:37;19.70;63.70
21540;DHT22;10931;52.164;5.518;2023-03-23T04:40:09;19.70;63.70
21540;DHT22;10931;52.164;5.518;2023-03-23T04:42:39;19.70;63.70
21540;DHT22;10931;52.164;5.518;2023-03-23T04:45:07;19.70;63.70
21540;DHT22;10931;52.164;5.518;2023-03-23T04:47:35;19.70;63.70
21540;DHT22;10931;52.164;5.518;2023-03-23T04:50:14;19.70;63.70
21540;DHT22;10931;52.164;5.518;2023-03-23T04:52:43;19.70;63.70
21540;DHT22;10931;52.164;5.518;2023-03-23T04:55:10;19.70;63.70
21540;DHT22;10931;52.164;5.518;2023-03-23T04:57:37;19.70;63.70
21540;DHT22;10931;52.164;5.518;2023-03-23T05:00:04;19.60;63.60
21540;DHT22;10931;52.164;5.518;2023-03-23T05:03:01;19.60;63.60
21540;DHT22;10931;52.164;5.518;2023-03-23T05:05:28;19.70;63.70
21540;DHT22;10931;52.164;5.518;2023-03-23T05:07:56;19.70;63.70
21540;DHT22;10931;52.164;5.518;2023-03-23T05:10:34;19.70;63.70
21540;DHT22;10931;52.164;5.518;2023-03-23T05:13:03;19.70;63.70
21540;DHT22;10931;52.164;5.518;2023-03-23T05:15:28;19.70;63.70
21540;DHT22;10931;52.164;5.518;2023-03-23T05:17:57;19.60;63.70
21540;DHT22;10931;52.164;5.518;2023-03-23T05:20:25;19.70;63.70
21540;DHT22;10931;52.164;5.518;2023-03-23T05:22:51;19.70;63.70
21540;DHT22;10931;52.164;5.518;2023-03-23T05:25:30;19.70;63.70
21540;DHT22;10931;52.164;5.518;2023-03-23T05:27:58;19.60;63.70
21540;DHT22;10931;52.164;5.518;2023-03-23T05:30:31;19.60;63.70
21540;DHT22;10931;52.164;5.518;2023-03-23T05:32:57;19.60;63.70
21540;DHT22;10931;52.164;5.518;2023-03-23T05:35:23;19.60;63.70
21540;DHT22;10931;52.164;5.518;2023-03-23T05:37:56;19.60;63.70
21540;DHT22;10931;52.164;5.518;2023-03-23T05:40:30;19.60;63.70
21540;DHT22;10931;52.164;5.518;2023-03-23T05:42:55;19.60;63.70
21540;DHT22;10931;52.164;5.518;2023-03-23T05:45:26;19.60;63.70
21540;DHT22;10931;52.164;5.518;2023-03-23T05:47:57;19.60;63.70
21540;DHT22;10931;52.164;5.518;2023-03-23T05:50:23;19.60;63.70
21540;DHT22;10931;52.164;5.518;2023-03-23T05:52:49;19.60;63.70
21540;DHT22;10931;52.164;5.518;2023-03-23T05:55:15;19.60;63.70
21540;DHT22;10931;52.164;5.518;2023-03-23T05:57:41;19.60;63.70
21540;DHT22;10931;52.164;5.518;2023-03-23T06:00:08;19.60;63.70
21540;DHT22;10931;52.164;5.518;2023-03-23T06:02:40;19.60;63.70
21540;DHT22;10931;52.164;5.518;2023-03-23T06:05:10;19.60;63.70
21540;DHT22;10931;52.164;5.518;2023-03-23T06:08:01;19.60;63.70
21540;DHT22;10931;52.164;5.518;2023-03-23T06:10:27;19.60;63.70
21540;DHT22;10931;52.164;5.518;2023-03-23T06:13:04;19.60;63.70
21540;DHT22;10931;52.164;5.518;2023-03-23T06:15:38;19.60;63.70
21540;DHT22;10931;52.164;5.518;2023-03-23T06:18:07;19.60;63.70
21540;DHT22;10931;52.164;5.518;2023-03-23T06:20:35;19.60;63.80
21540;DHT22;10931;52.164;5.518;2023-03-23T06:23:03;19.60;63.80
21540;DHT22;10931;52.164;5.518;2023-03-23T06:25:32;19.60;63.70
21540;DHT22;10931;52.164;5.518;2023-03-23T06:28:01;19.60;63.70
21540;DHT22;10931;52.164;5.518;2023-03-23T06:30:35;19.60;63.80
21540;DHT22;10931;52.164;5.518;2023-03-23T06:33:04;19.60;63.70
21540;DHT22;10931;52.164;5.518;2023-03-23T06:35:35;19.60;63.70
21540;DHT22;10931;52.164;5.518;2023-03-23T06:38:03;19.60;63.80
21540;DHT22;10931;52.164;5.518;2023-03-23T06:40:34;19.60;63.80
21540;DHT22;10931;52.164;5.518;2023-03-23T06:43:04;19.60;63.80
21540;DHT22;10931;52.164;5.518;2023-03-23T06:45:32;19.60;63.70
21540;DHT22;10931;52.164;5.518;2023-03-23T06:48:01;19.60;63.90
21540;DHT22;10931;52.164;5.518;2023-03-23T06:50:38;19.60;63.80
21540;DHT22;10931;52.164;5.518;2023-03-23T06:53:09;19.60;63.80
21540;DHT22;10931;52.164;5.518;2023-03-23T06:55:45;19.60;63.80
21540;DHT22;10931;52.164;5.518;2023-03-23T06:58:27;19.60;63.90
21540;DHT22;10931;52.164;5.518;2023-03-23T07:00:55;19.60;63.80
21540;DHT22;10931;52.164;5.518;2023-03-23T07:03:22;19.60;63.80
21540;DHT22;10931;52.164;5.518;2023-03-23T07:05:48;19.60;63.90
21540;DHT22;10931;52.164;5.518;2023-03-23T07:08:15;19.50;63.70
21540;DHT22;10931;52.164;5.518;2023-03-23T07:10:41;19.60;63.60
21540;DHT22;10931;52.164;5.518;2023-03-23T07:13:10;19.60;63.90
21540;DHT22;10931;52.164;5.518;2023-03-23T07:15:36;19.50;63.70
21540;DHT22;10931;52.164;5.518;2023-03-23T07:18:02;19.60;63.80
21540;DHT22;10931;52.164;5.518;2023-03-23T07:20:28;19.50;63.70
21540;DHT22;10931;52.164;5.518;2023-03-23T07:22:57;19.50;63.70
21540;DHT22;10931;52.164;5.518;2023-03-23T07:25:34;19.50;63.70
21540;DHT22;10931;52.164;5.518;2023-03-23T07:28:02;19.50;63.70
21540;DHT22;10931;52.164;5.518;2023-03-23T07:30:28;19.50;63.70
21540;DHT22;10931;52.164;5.518;2023-03-23T07:32:58;19.50;63.70
21540;DHT22;10931;52.164;5.518;2023-03-23T07:35:24;19.50;63.80
21540;DHT22;10931;52.164;5.518;2023-03-23T07:38:00;19.50;63.80
21540;DHT22;10931;52.164;5.518;2023-03-23T07:40:30;19.50;63.80
21540;DHT22;10931;52.164;5.518;2023-03-23T07:43:15;19.50;63.70
21540;DHT22;10931;52.164;5.518;2023-03-23T07:45:44;19.50;63.80
21540;DHT22;10931;52.164;5.518;2023-03-23T07:48:10;19.50;63.80
21540;DHT22;10931;52.164;5.518;2023-03-23T07:50:36;19.60;63.90
21540;DHT22;10931;52.164;5.518;2023-03-23T07:53:04;19.50;63.90
21540;DHT22;10931;52.164;5.518;2023-03-23T07:55:30;19.50;63.80
21540;DHT22;10931;52.164;5.518;2023-03-23T07:57:58;19.50;63.80
21540;DHT22;10931;52.164;5.518;2023-03-23T08:00:53;19.60;63.90
21540;DHT22;10931;52.164;5.518;2023-03-23T08:03:50;19.60;63.90
21540;DHT22;10931;52.164;5.518;2023-03-23T08:06:27;19.60;63.90
21540;DHT22;10931;52.164;5.518;2023-03-23T08:09:20;19.60;63.90
21540;DHT22;10931;52.164;5.518;2023-03-23T08:11:45;19.60;63.90
21540;DHT22;10931;52.164;5.518;2023-03-23T08:14:13;19.60;63.90
21540;DHT22;10931;52.164;5.518;2023-03-23T08:16:39;19.50;63.80
21540;DHT22;10931;52.164;5.518;2023-03-23T08:19:05;19.60;63.90
21540;DHT22;10931;52.164;5.518;2023-03-23T08:21:30;19.60;63.90
21540;DHT22;10931;52.164;5.518;2023-03-23T08:23:59;19.50;63.90
21540;DHT22;10931;52.164;5.518;2023-03-23T08:26:27;19.50;63.90
21540;DHT22;10931;52.164;5.518;2023-03-23T08:29:19;19.60;63.90
21540;DHT22;10931;52.164;5.518;2023-03-23T08:32:04;19.60;63.90
21540;DHT22;10931;52.164;5.518;2023-03-23T08:34:30;19.60;63.90
21540;DHT22;10931;52.164;5.518;2023-03-23T08:36:58;19.50;63.90
21540;DHT22;10931;52.164;5.518;2023-03-23T08:39:24;19.60;63.90
21540;DHT22;10931;52.164;5.518;2023-03-23T08:41:53;19.60;63.90
21540;DHT22;10931;52.164;5.518;2023-03-23T08:44:23;19.60;63.90
21540;DHT22;10931;52.164;5.518;2023-03-23T08:47:06;19.50;63.90
21540;DHT22;10931;52.164;5.518;2023-03-23T08:49:40;19.50;63.90
21540;DHT22;10931;52.164;5.518;2023-03-23T08:52:05;19.60;63.90
21540;DHT22;10931;52.164;5.518;2023-03-23T08:54:35;19.60;64.00
21540;DHT22;10931;52.164;5.518;2023-03-23T08:57:07;19.60;63.90
21540;DHT22;10931;52.164;5.518;2023-03-23T08:59:34;19.60;63.90
21540;DHT22;10931;52.164;5.518;2023-03-23T09:02:03;19.60;63.90
21540;DHT22;10931;52.164;5.518;2023-03-23T09:04:32;19.60;63.90
21540;DHT22;10931;52.164;5.518;2023-03-23T09:07:21;19.60;64.00
21540;DHT22;10931;52.164;5.518;2023-03-23T09:09:58;19.50;63.90
21540;DHT22;10931;52.164;5.518;2023-03-23T09:12:27;19.60;64.00
21540;DHT22;10931;52.164;5.518;2023-03-23T09:14:56;19.50;63.90
21540;DHT22;10931;52.164;5.518;2023-03-23T09:17:22;19.50;63.90
21540;DHT22;10931;52.164;5.518;2023-03-23T09:19:48;19.50;63.90
21540;DHT22;10931;52.164;5.518;2023-03-23T09:22:16;19.60;64.00
21540;DHT22;10931;52.164;5.518;2023-03-23T09:24:45;19.60;64.00
21540;DHT22;10931;52.164;5.518;2023-03-23T09:27:14;19.60;64.00
21540;DHT22;10931;52.164;5.518;2023-03-23T09:29:41;19.60;64.00
21540;DHT22;10931;52.164;5.518;2023-03-23T09:32:16;19.60;64.00
21540;DHT22;10931;52.164;5.518;2023-03-23T09:35:01;19.60;64.00
21540;DHT22;10931;52.164;5.518;2023-03-23T09:37:52;19.60;63.90
21540;DHT22;10931;52.164;5.518;2023-03-23T09:40:25;19.60;63.90
21540;DHT22;10931;52.164;5.518;2023-03-23T09:51:14;19.60;64.00
21540;DHT22;10931;52.164;5.518;2023-03-23T09:53:43;19.60;64.00
21540;DHT22;10931;52.164;5.518;2023-03-23T09:56:13;19.60;64.00
21540;DHT22;10931;52.164;5.518;2023-03-23T09:58:46;19.60;64.00
21540;DHT22;10931;52.164;5.518;2023-03-23T10:01:36;19.60;63.90
21540;DHT22;10931;52.164;5.518;2023-03-23T10:04:12;19.60;64.00
21540;DHT22;10931;52.164;5.518;2023-03-23T10:06:42;19.60;64.00
21540;DHT22;10931;52.164;5.518;2023-03-23T10:09:14;19.60;63.90
21540;DHT22;10931;52.164;5.518;2023-03-23T10:11:51;19.60;64.00
21540;DHT22;10931;52.164;5.518;2023-03-23T10:20:36;19.60;63.90
21540;DHT22;10931;52.164;5.518;2023-03-23T10:23:14;19.70;64.00
21540;DHT22;10931;52.164;5.518;2023-03-23T10:25:56;19.70;64.00
21540;DHT22;10931;52.164;5.518;2023-03-23T10:28:39;19.70;64.00
21540;DHT22;10931;52.164;5.518;2023-03-23T10:31:40;19.70;64.00
21540;DHT22;10931;52.164;5.518;2023-03-23T10:39:54;19.70;64.00
21540;DHT22;10931;52.164;5.518;2023-03-23T10:42:27;19.70;64.00
21540;DHT22;10931;52.164;5.518;2023-03-23T10:45:25;19.70;64.00
21540;DHT22;10931;52.164;5.518;2023-03-23T10:48:11;19.70;64.00
21540;DHT22;10931;52.164;5.518;2023-03-23T10:50:41;19.70;64.00
21540;DHT22;10931;52.164;5.518;2023-03-23T10:53:21;19.80;64.00
21540;DHT22;10931;52.164;5.518;2023-03-23T10:56:01;19.70;64.00
21540;DHT22;10931;52.164;5.518;2023-03-23T10:58:32;19.80;64.10
21540;DHT22;10931;52.164;5.518;2023-03-23T11:01:09;19.80;64.00
21540;DHT22;10931;52.164;5.518;2023-03-23T11:03:47;19.80;64.00
21540;DHT22;10931;52.164;5.518;2023-03-23T11:06:24;19.80;64.00
21540;DHT22;10931;52.164;5.518;2023-03-23T11:09:11;19.80;64.00
21540;DHT22;10931;52.164;5.518;2023-03-23T11:11:42;19.80;64.20
21540;DHT22;10931;52.164;5.518;2023-03-23T11:14:18;19.80;64.30
21540;DHT22;10931;52.164;5.518;2023-03-23T11:16:51;20.00;64.50
21540;DHT22;10931;52.164;5.518;2023-03-23T11:19:29;20.00;64.50
21540;DHT22;10931;52.164;5.518;2023-03-23T11:22:09;20.20;64.60
21540;DHT22;10931;52.164;5.518;2023-03-23T11:24:44;20.20;64.60
21540;DHT22;10931;52.164;5.518;2023-03-23T11:27:11;20.30;64.70
21540;DHT22;10931;52.164;5.518;2023-03-23T11:30:01;20.40;64.80
21540;DHT22;10931;52.164;5.518;2023-03-23T11:32:34;20.60;64.80
21540;DHT22;10931;52.164;5.518;2023-03-23T11:35:04;20.70;64.80
21540;DHT22;10931;52.164;5.518;2023-03-23T11:37:35;20.80;64.80
21540;DHT22;10931;52.164;5.518;2023-03-23T11:40:15;20.90;64.70
21540;DHT22;10931;52.164;5.518;2023-03-23T11:42:57;21.00;64.70
21540;DHT22;10931;52.164;5.518;2023-03-23T11:45:38;21.20;64.60
21540;DHT22;10931;52.164;5.518;2023-03-23T11:48:40;21.30;64.60
21540;DHT22;10931;52.164;5.518;2023-03-23T11:54:04;21.60;64.50
21540;DHT22;10931;52.164;5.518;2023-03-23T11:56:41;21.70;64.40
21540;DHT22;10931;52.164;5.518;2023-03-23T11:59:17;21.80;64.40
21540;DHT22;10931;52.164;5.518;2023-03-23T12:10:09;22.10;64.10
21540;DHT22;10931;52.164;5.518;2023-03-23T12:15:41;22.30;63.90
21540;DHT22;10931;52.164;5.518;2023-03-23T12:18:53;22.30;63.80
21540;DHT22;10931;52.164;5.518;2023-03-23T12:24:16;22.40;63.60
21540;DHT22;10931;52.164;5.518;2023-03-23T12:44:57;22.70;63.50
21540;DHT22;10931;52.164;5.518;2023-03-23T13:37:24;23.00;63.20
21540;DHT22;10931;52.164;5.518;2023-03-23T13:40:00;23.00;63.20
21540;DHT22;10931;52.164;5.518;2023-03-23T13:42:54;23.00;63.20
21540;DHT22;10931;52.164;5.518;2023-03-23T13:48:20;23.10;63.20
21540;DHT22;10931;52.164;5.518;2023-03-23T13:51:25;23.10;63.20
21540;DHT22;10931;52.164;5.518;2023-03-23T13:53:51;23.10;63.30
21540;DHT22;10931;52.164;5.518;2023-03-23T13:56:42;23.20;63.30
21540;DHT22;10931;52.164;5.518;2023-03-23T13:59:16;23.20;63.40
21540;DHT22;10931;52.164;5.518;2023-03-23T14:01:49;23.20;63.30
21540;DHT22;10931;52.164;5.518;2023-03-23T14:04:19;23.20;63.40
21540;DHT22;10931;52.164;5.518;2023-03-23T14:06:52;23.20;63.40
21540;DHT22;10931;52.164;5.518;2023-03-23T14:09:56;23.20;63.30
21540;DHT22;10931;52.164;5.518;2023-03-23T14:12:28;23.20;63.30
21540;DHT22;10931;52.164;5.518;2023-03-23T14:15:02;23.20;63.30
21540;DHT22;10931;52.164;5.518;2023-03-23T14:17:41;23.20;63.30
21540;DHT22;10931;52.164;5.518;2023-03-23T14:20:29;23.10;63.20
21540;DHT22;10931;52.164;5.518;2023-03-23T14:23:00;23.20;63.30
21540;DHT22;10931;52.164;5.518;2023-03-23T14:25:31;23.20;63.20
21540;DHT22;10931;52.164;5.518;2023-03-23T14:27:59;23.20;63.30
21540;DHT22;10931;52.164;5.518;2023-03-23T14:34:37;23.20;63.20
21540;DHT22;10931;52.164;5.518;2023-03-23T14:37:03;23.20;63.20
21540;DHT22;10931;52.164;5.518;2023-03-23T14:39:36;23.20;63.20
21540;DHT22;10931;52.164;5.518;2023-03-23T14:42:24;23.20;63.20
21540;DHT22;10931;52.164;5.518;2023-03-23T14:44:53;23.20;63.10
21540;DHT22;10931;52.164;5.518;2023-03-23T14:47:37;23.20;63.10
21540;DHT22;10931;52.164;5.518;2023-03-23T14:50:05;23.20;63.20
21540;DHT22;10931;52.164;5.518;2023-03-23T14:52:38;23.20;63.10
21540;DHT22;10931;52.164;5.518;2023-03-23T14:55:16;23.20;63.10
21540;DHT22;10931;52.164;5.518;2023-03-23T14:57:54;23.30;63.20
21540;DHT22;10931;52.164;5.518;2023-03-23T15:00:30;23.20;63.10
21540;DHT22;10931;52.164;5.518;2023-03-23T15:03:09;23.30;63.20
21540;DHT22;10931;52.164;5.518;2023-03-23T15:05:49;23.20;63.10
21540;DHT22;10931;52.164;5.518;2023-03-23T15:08:29;23.20;63.10
21540;DHT22;10931;52.164;5.518;2023-03-23T15:11:11;23.30;63.20
21540;DHT22;10931;52.164;5.518;2023-03-23T15:16:33;23.30;63.20
21540;DHT22;10931;52.164;5.518;2023-03-23T15:24:44;23.30;63.10
21540;DHT22;10931;52.164;5.518;2023-03-23T15:27:16;23.30;63.10
21540;DHT22;10931;52.164;5.518;2023-03-23T15:30:26;23.30;63.10
21540;DHT22;10931;52.164;5.518;2023-03-23T15:33:12;23.30;63.20
21540;DHT22;10931;52.164;5.518;2023-03-23T15:35:52;23.30;63.20
21540;DHT22;10931;52.164;5.518;2023-03-23T15:38:46;23.30;63.20
21540;DHT22;10931;52.164;5.518;2023-03-23T15:41:23;23.30;63.20
21540;DHT22;10931;52.164;5.518;2023-03-23T15:43:57;23.30;63.20
21540;DHT22;10931;52.164;5.518;2023-03-23T15:46:29;23.30;63.20
21540;DHT22;10931;52.164;5.518;2023-03-23T15:49:08;23.30;63.20
21540;DHT22;10931;52.164;5.518;2023-03-23T15:51:36;23.30;63.30
21540;DHT22;10931;52.164;5.518;2023-03-23T15:54:03;23.30;63.70
21540;DHT22;10931;52.164;5.518;2023-03-23T15:56:31;23.40;63.40
21540;DHT22;10931;52.164;5.518;2023-03-23T16:00:04;23.40;63.40
21540;DHT22;10931;52.164;5.518;2023-03-23T16:02:34;23.40;63.40
21540;DHT22;10931;52.164;5.518;2023-03-23T16:05:33;23.40;63.50
21540;DHT22;10931;52.164;5.518;2023-03-23T16:08:23;23.40;63.50
21540;DHT22;10931;52.164;5.518;2023-03-23T16:10:48;23.40;63.50
21540;DHT22;10931;52.164;5.518;2023-03-23T16:13:17;23.40;63.50
21540;DHT22;10931;52.164;5.518;2023-03-23T16:15:56;23.40;63.50
21540;DHT22;10931;52.164;5.518;2023-03-23T16:18:22;23.40;63.60
21540;DHT22;10931;52.164;5.518;2023-03-23T16:20:58;23.40;63.60
21540;DHT22;10931;52.164;5.518;2023-03-23T16:23:25;23.40;63.60
21540;DHT22;10931;52.164;5.518;2023-03-23T16:26:19;23.40;63.60
21540;DHT22;10931;52.164;5.518;2023-03-23T16:28:48;23.40;63.60
21540;DHT22;10931;52.164;5.518;2023-03-23T16:31:16;23.40;63.60
21540;DHT22;10931;52.164;5.518;2023-03-23T16:33:48;23.40;63.60
21540;DHT22;10931;52.164;5.518;2023-03-23T16:36:18;23.40;63.60
21540;DHT22;10931;52.164;5.518;2023-03-23T16:38:52;23.40;63.60
21540;DHT22;10931;52.164;5.518;2023-03-23T16:41:18;23.40;63.70
21540;DHT22;10931;52.164;5.518;2023-03-23T16:43:46;23.40;63.70
21540;DHT22;10931;52.164;5.518;2023-03-23T16:46:13;23.40;63.70
21540;DHT22;10931;52.164;5.518;2023-03-23T16:48:39;23.40;63.70
21540;DHT22;10931;52.164;5.518;2023-03-23T16:51:05;23.40;63.70
21540;DHT22;10931;52.164;5.518;2023-03-23T16:53:31;23.30;63.60
21540;DHT22;10931;52.164;5.518;2023-03-23T16:56:01;23.30;63.60
21540;DHT22;10931;52.164;5.518;2023-03-23T16:58:33;23.40;63.70
21540;DHT22;10931;52.164;5.518;2023-03-23T17:01:08;23.30;63.60
21540;DHT22;10931;52.164;5.518;2023-03-23T17:03:51;23.30;63.70
21540;DHT22;10931;52.164;5.518;2023-03-23T17:06:24;23.30;63.70
21540;DHT22;10931;52.164;5.518;2023-03-23T17:08:52;23.30;63.70
21540;DHT22;10931;52.164;5.518;2023-03-23T17:11:18;23.30;63.60
21540;DHT22;10931;52.164;5.518;2023-03-23T17:13:55;23.30;63.70
21540;DHT22;10931;52.164;5.518;2023-03-23T17:16:48;23.30;63.70
21540;DHT22;10931;52.164;5.518;2023-03-23T17:19:17;23.30;63.70
21540;DHT22;10931;52.164;5.518;2023-03-23T17:21:48;23.30;63.70
21540;DHT22;10931;52.164;5.518;2023-03-23T17:31:18;23.20;63.70
21540;DHT22;10931;52.164;5.518;2023-03-23T17:33:46;23.20;63.70
21540;DHT22;10931;52.164;5.518;2023-03-23T17:36:12;23.20;63.70
21540;DHT22;10931;52.164;5.518;2023-03-23T17:39:04;23.20;63.70
21540;DHT22;10931;52.164;5.518;2023-03-23T17:41:32;23.20;63.70
21540;DHT22;10931;52.164;5.518;2023-03-23T17:43:58;23.20;63.70
21540;DHT22;10931;52.164;5.518;2023-03-23T17:46:24;23.20;63.70
21540;DHT22;10931;52.164;5.518;2023-03-23T18:23:05;23.10;63.70
21540;DHT22;10931;52.164;5.518;2023-03-23T18:26:02;23.10;63.70
21540;DHT22;10931;52.164;5.518;2023-03-23T18:28:38;23.00;63.60
21540;DHT22;10931;52.164;5.518;2023-03-23T18:31:54;23.10;63.70
21540;DHT22;10931;52.164;5.518;2023-03-23T18:34:22;23.00;63.60
21540;DHT22;10931;52.164;5.518;2023-03-23T18:37:08;23.00;63.60
21540;DHT22;10931;52.164;5.518;2023-03-23T18:39:54;23.00;63.60
21540;DHT22;10931;52.164;5.518;2023-03-23T18:42:41;23.00;63.60
21540;DHT22;10931;52.164;5.518;2023-03-23T18:50:59;23.00;63.60
21540;DHT22;10931;52.164;5.518;2023-03-23T18:56:56;23.00;63.60
21540;DHT22;10931;52.164;5.518;2023-03-23T22:16:30;22.60;63.60
21540;DHT22;10931;52.164;5.518;2023-03-23T22:18:56;22.60;63.60
21540;DHT22;10931;52.164;5.518;2023-03-23T22:21:24;22.60;63.60
21540;DHT22;10931;52.164;5.518;2023-03-23T22:23:58;22.60;63.60
21540;DHT22;10931;52.164;5.518;2023-03-23T22:26:31;22.60;63.60
21540;DHT22;10931;52.164;5.518;2023-03-23T22:28:57;22.50;63.50
21540;DHT22;10931;52.164;5.518;2023-03-23T22:31:44;22.50;63.50
21540;DHT22;10931;52.164;5.518;2023-03-23T22:34:23;22.50;63.50
21540;DHT22;10931;52.164;5.518;2023-03-23T22:37:05;22.50;63.60
21540;DHT22;10931;52.164;5.518;2023-03-23T22:39:39;22.50;63.50
21540;DHT22;10931;52.164;5.518;2023-03-23T22:42:14;22.50;63.50